sensor_id;sensor_type;location;lat;lon;timestamp;temperature;humidity
20845;DHT22;10583;49.084;8.646;2023-02-01T00:01:55;4.40;99.90
20845;DHT22;10583;49.084;8.646;2023-02-01T00:04:22;4.40;99.90
20845;DHT22;10583;49.084;8.646;2023-02-01T00:06:49;4.50;99.90
20845;DHT22;10583;49.084;8.646;2023-02-01T00:09:15;4.50;99.90
20845;DHT22;10583;49.084;8.646;2023-02-01T00:11:44;4.50;99.90
20845;DHT22;10583;49.084;8.646;2023-02-01T00:14:11;4.40;99.90
20845;DHT22;10583;49.084;8.646;2023-02-01T00:16:37;4.40;99.90
20845;DHT22;10583;49.084;8.646;2023-02-01T00:19:06;4.40;99.90
20845;DHT22;10583;49.084;8.646;2023-02-01T00:21:33;4.50;99.90
20845;DHT22;10583;49.084;8.646;2023-02-01T00:24:00;4.50;99.90
20845;DHT22;10583;49.084;8.646;2023-02-01T00:26:31;4.50;99.90
20845;DHT22;10583;49.084;8.646;2023-02-01T00:29:00;4.50;99.90
20845;DHT22;10583;49.084;8.646;2023-02-01T00:31:27;4.50;99.90
20845;DHT22;10583;49.084;8.646;2023-02-01T00:33:53;4.50;99.90
20845;DHT22;10583;49.084;8.646;2023-02-01T00:36:20;4.50;99.90
20845;DHT22;10583;49.084;8.646;2023-02-01T00:38:47;4.50;99.90
20845;DHT22;10583;49.084;8.646;2023-02-01T00:41:15;4.50;99.90
20845;DHT22;10583;49.084;8.646;2023-02-01T00:43:43;4.50;99.90
20845;DHT22;10583;49.084;8.646;2023-02-01T00:46:13;4.50;99.90
20845;DHT22;10583;49.084;8.646;2023-02-01T00:48:40;4.50;99.90
20845;DHT22;10583;49.084;8.646;2023-02-01T00:51:09;4.50;99.90
20845;DHT22;10583;49.084;8.646;2023-02-01T00:53:36;4.60;99.90
20845;DHT22;10583;49.084;8.646;2023-02-01T00:56:03;4.60;99.90
20845;DHT22;10583;49.084;8.646;2023-02-01T00:58:31;4.60;99.90
20845;DHT22;10583;49.084;8.646;2023-02-01T01:01:02;4.60;99.90
20845;DHT22;10583;49.084;8.646;2023-02-01T01:03:31;4.60;99.90
20845;DHT22;10583;49.084;8.646;2023-02-01T01:06:01;4.60;99.90
20845;DHT22;10583;49.084;8.646;2023-02-01T01:08:28;4.60;99.90
20845;DHT22;10583;49.084;8.646;2023-02-01T01:10:55;4.60;99.90
20845;DHT22;10583;49.084;8.646;2023-02-01T01:13:22;4.60;99.90
20845;DHT22;10583;49.084;8.646;2023-02-01T01:15:49;4.70;99.90
20845;DHT22;10583;49.084;8.646;2023-02-01T01:18:16;4.70;99.90
20845;DHT22;10583;49.084;8.646;2023-02-01T01:20:44;4.70;99.90
20845;DHT22;10583;49.084;8.646;2023-02-01T01:23:10;4.80;99.90
20845;DHT22;10583;49.084;8.646;2023-02-01T01:25:37;4.70;99.90
20845;DHT22;10583;49.084;8.646;2023-02-01T01:28:04;4.80;99.90
20845;DHT22;10583;49.084;8.646;2023-02-01T01:30:31;4.70;99.90
20845;DHT22;10583;49.084;8.646;2023-02-01T01:32:59;4.70;99.90
20845;DHT22;10583;49.084;8.646;2023-02-01T01:35:25;4.80;99.90
20845;DHT22;10583;49.084;8.646;2023-02-01T01:37:53;4.80;99.90
20845;DHT22;10583;49.084;8.646;2023-02-01T01:40:20;4.80;99.90
20845;DHT22;10583;49.084;8.646;2023-02-01T01:42:47;4.80;99.90
20845;DHT22;10583;49.084;8.646;2023-02-01T01:45:23;4.80;99.90
20845;DHT22;10583;49.084;8.646;2023-02-01T01:47:52;4.80;99.90
20845;DHT22;10583;49.084;8.646;2023-02-01T01:50:23;4.80;99.90
20845;DHT22;10583;49.084;8.646;2023-02-01T01:52:54;4.80;99.90
20845;DHT22;10583;49.084;8.646;2023-02-01T01:55:22;4.80;99.90
20845;DHT22;10583;49.084;8.646;2023-02-01T01:57:53;4.80;99.90
20845;DHT22;10583;49.084;8.646;2023-02-01T02:00:21;4.80;99.90
20845;DHT22;10583;49.084;8.646;2023-02-01T02:02:54;4.90;99.90
20845;DHT22;10583;49.084;8.646;2023-02-01T02:05:23;4.80;99.90
20845;DHT22;10583;49.084;8.646;2023-02-01T02:07:52;4.90;99.90
20845;DHT22;10583;49.084;8.646;2023-02-01T02:10:21;4.80;99.90
20845;DHT22;10583;49.084;8.646;2023-02-01T02:13:08;4.90;99.90
20845;DHT22;10583;49.084;8.646;2023-02-01T02:15:37;4.90;99.90
20845;DHT22;10583;49.084;8.646;2023-02-01T02:18:12;4.90;99.90
20845;DHT22;10583;49.084;8.646;2023-02-01T02:21:07;4.80;99.90
20845;DHT22;10583;49.084;8.646;2023-02-01T02:24:04;4.90;99.90
20845;DHT22;10583;49.084;8.646;2023-02-01T02:27:02;4.90;99.90
20845;DHT22;10583;49.084;8.646;2023-02-01T02:35:41;4.90;99.90
20845;DHT22;10583;49.084;8.646;2023-02-01T02:38:17;4.90;99.90
20845;DHT22;10583;49.084;8.646;2023-02-01T02:40:49;4.90;99.90
20845;DHT22;10583;49.084;8.646;2023-02-01T02:43:23;5.00;99.90
20845;DHT22;10583;49.084;8.646;2023-02-01T02:46:19;4.90;99.90
20845;DHT22;10583;49.084;8.646;2023-02-01T02:49:11;4.90;99.90
20845;DHT22;10583;49.084;8.646;2023-02-01T02:51:44;4.90;99.90
20845;DHT22;10583;49.084;8.646;2023-02-01T02:54:32;5.00;99.90
20845;DHT22;10583;49.084;8.646;2023-02-01T02:57:16;5.00;99.90
20845;DHT22;10583;49.084;8.646;2023-02-01T03:00:03;5.00;99.90
20845;DHT22;10583;49.084;8.646;2023-02-01T03:02:48;5.00;99.90
20845;DHT22;10583;49.084;8.646;2023-02-01T03:05:34;5.00;99.90
20845;DHT22;10583;49.084;8.646;2023-02-01T03:08:04;5.00;99.90
20845;DHT22;10583;49.084;8.646;2023-02-01T03:10:42;5.00;99.90
20845;DHT22;10583;49.084;8.646;2023-02-01T03:13:13;5.00;99.90
20845;DHT22;10583;49.084;8.646;2023-02-01T03:15:46;5.00;99.90
20845;DHT22;10583;49.084;8.646;2023-02-01T03:18:19;5.00;99.90
20845;DHT22;10583;49.084;8.646;2023-02-01T03:20:50;5.10;99.90
20845;DHT22;10583;49.084;8.646;2023-02-01T03:23:22;5.10;99.90
20845;DHT22;10583;49.084;8.646;2023-02-01T03:25:53;5.10;99.90
20845;DHT22;10583;49.084;8.646;2023-02-01T03:28:22;5.10;99.90
20845;DHT22;10583;49.084;8.646;2023-02-01T03:30:49;5.10;99.90
20845;DHT22;10583;49.084;8.646;2023-02-01T03:33:19;5.10;99.90
20845;DHT22;10583;49.084;8.646;2023-02-01T03:35:57;5.10;99.90
20845;DHT22;10583;49.084;8.646;2023-02-01T03:38:30;5.10;99.90
20845;DHT22;10583;49.084;8.646;2023-02-01T03:41:07;5.00;99.90
20845;DHT22;10583;49.084;8.646;2023-02-01T03:43:52;5.00;99.90
20845;DHT22;10583;49.084;8.646;2023-02-01T03:46:24;5.00;99.90
20845;DHT22;10583;49.084;8.646;2023-02-01T03:48:53;4.90;99.90
20845;DHT22;10583;49.084;8.646;2023-02-01T03:51:22;4.90;99.90
20845;DHT22;10583;49.084;8.646;2023-02-01T03:53:52;4.90;99.90
20845;DHT22;10583;49.084;8.646;2023-02-01T03:56:21;4.90;99.90
20845;DHT22;10583;49.084;8.646;2023-02-01T03:58:49;4.90;99.90
20845;DHT22;10583;49.084;8.646;2023-02-01T04:01:25;4.90;99.90
20845;DHT22;10583;49.084;8.646;2023-02-01T04:03:52;4.90;99.90
20845;DHT22;10583;49.084;8.646;2023-02-01T04:06:19;4.90;99.90
20845;DHT22;10583;49.084;8.646;2023-02-01T04:08:46;5.00;99.90
20845;DHT22;10583;49.084;8.646;2023-02-01T04:11:14;4.90;99.90
20845;DHT22;10583;49.084;8.646;2023-02-01T04:13:41;4.90;99.90
20845;DHT22;10583;49.084;8.646;2023-02-01T04:16:08;5.00;99.90
20845;DHT22;10583;49.084;8.646;2023-02-01T04:18:34;4.90;99.90
20845;DHT22;10583;49.084;8.646;2023-02-01T04:21:01;4.90;99.90
20845;DHT22;10583;49.084;8.646;2023-02-01T04:23:28;4.80;99.90
20845;DHT22;10583;49.084;8.646;2023-02-01T04:25:59;4.80;99.90
20845;DHT22;10583;49.084;8.646;2023-02-01T04:28:28;4.70;99.90
20845;DHT22;10583;49.084;8.646;2023-02-01T04:30:55;4.70;99.90
20845;DHT22;10583;49.084;8.646;2023-02-01T04:33:22;4.70;99.90
20845;DHT22;10583;49.084;8.646;2023-02-01T04:35:48;4.70;99.90
20845;DHT22;10583;49.084;8.646;2023-02-01T04:38:15;4.70;99.90
20845;DHT22;10583;49.084;8.646;2023-02-01T04:40:42;4.70;99.90
20845;DHT22;10583;49.084;8.646;2023-02-01T04:43:08;4.70;99.90
20845;DHT22;10583;49.084;8.646;2023-02-01T04:45:36;4.70;99.90
20845;DHT22;10583;49.084;8.646;2023-02-01T04:48:04;4.70;99.90
20845;DHT22;10583;49.084;8.646;2023-02-01T04:50:30;4.70;99.90
20845;DHT22;10583;49.084;8.646;2023-02-01T04:52:57;4.70;99.90
20845;DHT22;10583;49.084;8.646;2023-02-01T04:55:24;4.70;99.90
20845;DHT22;10583;49.084;8.646;2023-02-01T04:57:51;4.70;99.90
20845;DHT22;10583;49.084;8.646;2023-02-01T05:00:18;4.70;99.90
20845;DHT22;10583;49.084;8.646;2023-02-01T05:02:46;4.60;99.90
20845;DHT22;10583;49.084;8.646;2023-02-01T05:05:13;4.60;99.90
20845;DHT22;10583;49.084;8.646;2023-02-01T05:07:39;4.50;99.90
20845;DHT22;10583;49.084;8.646;2023-02-01T05:10:07;4.50;99.90
20845;DHT22;10583;49.084;8.646;2023-02-01T05:12:34;4.50;99.90
20845;DHT22;10583;49.084;8.646;2023-02-01T05:15:18;4.50;99.90
20845;DHT22;10583;49.084;8.646;2023-02-01T05:17:46;4.50;99.90
20845;DHT22;10583;49.084;8.646;2023-02-01T05:20:13;4.50;99.90
20845;DHT22;10583;49.084;8.646;2023-02-01T05:22:41;4.50;99.90
20845;DHT22;10583;49.084;8.646;2023-02-01T05:25:08;4.50;99.90
20845;DHT22;10583;49.084;8.646;2023-02-01T05:27:34;4.50;99.90
20845;DHT22;10583;49.084;8.646;2023-02-01T05:30:02;4.60;99.90
20845;DHT22;10583;49.084;8.646;2023-02-01T05:32:29;4.60;99.90
20845;DHT22;10583;49.084;8.646;2023-02-01T05:34:57;4.60;99.90
20845;DHT22;10583;49.084;8.646;2023-02-01T05:37:24;4.60;99.90
20845;DHT22;10583;49.084;8.646;2023-02-01T05:39:50;4.60;99.90
20845;DHT22;10583;49.084;8.646;2023-02-01T05:42:17;4.60;99.90
20845;DHT22;10583;49.084;8.646;2023-02-01T05:44:44;4.60;99.90
20845;DHT22;10583;49.084;8.646;2023-02-01T05:47:11;4.60;99.90
20845;DHT22;10583;49.084;8.646;2023-02-01T05:49:37;4.60;99.90
20845;DHT22;10583;49.084;8.646;2023-02-01T05:52:06;4.60;99.90
20845;DHT22;10583;49.084;8.646;2023-02-01T05:54:32;4.60;99.90
20845;DHT22;10583;49.084;8.646;2023-02-01T05:56:59;4.60;99.90
20845;DHT22;10583;49.084;8.646;2023-02-01T05:59:26;4.60;99.90
20845;DHT22;10583;49.084;8.646;2023-02-01T06:01:52;4.70;99.90
20845;DHT22;10583;49.084;8.646;2023-02-01T06:04:19;4.70;99.90
20845;DHT22;10583;49.084;8.646;2023-02-01T06:06:46;4.70;99.90
20845;DHT22;10583;49.084;8.646;2023-02-01T06:09:17;4.70;99.90
20845;DHT22;10583;49.084;8.646;2023-02-01T06:11:43;4.70;99.90
20845;DHT22;10583;49.084;8.646;2023-02-01T06:14:10;4.70;99.90
20845;DHT22;10583;49.084;8.646;2023-02-01T06:16:37;4.70;99.90
20845;DHT22;10583;49.084;8.646;2023-02-01T06:19:04;4.70;99.90
20845;DHT22;10583;49.084;8.646;2023-02-01T06:21:30;4.70;99.90
20845;DHT22;10583;49.084;8.646;2023-02-01T06:23:59;4.60;99.90
20845;DHT22;10583;49.084;8.646;2023-02-01T06:26:27;4.60;99.90
20845;DHT22;10583;49.084;8.646;2023-02-01T06:28:54;4.60;99.90
20845;DHT22;10583;49.084;8.646;2023-02-01T06:31:21;4.60;99.90
20845;DHT22;10583;49.084;8.646;2023-02-01T06:33:48;4.60;99.90
20845;DHT22;10583;49.084;8.646;2023-02-01T06:36:15;4.60;99.90
20845;DHT22;10583;49.084;8.646;2023-02-01T06:38:44;4.60;99.90
20845;DHT22;10583;49.084;8.646;2023-02-01T06:41:11;4.60;99.90
20845;DHT22;10583;49.084;8.646;2023-02-01T06:43:39;4.60;99.90
20845;DHT22;10583;49.084;8.646;2023-02-01T06:46:07;4.60;99.90
20845;DHT22;10583;49.084;8.646;2023-02-01T06:48:34;4.60;99.90
20845;DHT22;10583;49.084;8.646;2023-02-01T06:51:01;4.60;99.90
20845;DHT22;10583;49.084;8.646;2023-02-01T06:53:29;4.60;99.90
20845;DHT22;10583;49.084;8.646;2023-02-01T06:55:58;4.60;99.90
20845;DHT22;10583;49.084;8.646;2023-02-01T06:58:28;4.60;99.90
20845;DHT22;10583;49.084;8.646;2023-02-01T07:00:56;4.70;99.90
20845;DHT22;10583;49.084;8.646;2023-02-01T07:03:24;4.70;99.90
20845;DHT22;10583;49.084;8.646;2023-02-01T07:05:56;4.70;99.90
20845;DHT22;10583;49.084;8.646;2023-02-01T07:08:25;4.60;99.90
20845;DHT22;10583;49.084;8.646;2023-02-01T07:10:52;4.60;99.90
20845;DHT22;10583;49.084;8.646;2023-02-01T07:13:19;4.60;99.90
20845;DHT22;10583;49.084;8.646;2023-02-01T07:15:46;4.60;99.90
20845;DHT22;10583;49.084;8.646;2023-02-01T07:18:14;4.60;99.90
20845;DHT22;10583;49.084;8.646;2023-02-01T07:20:41;4.60;99.90
20845;DHT22;10583;49.084;8.646;2023-02-01T07:23:09;4.60;99.90
20845;DHT22;10583;49.084;8.646;2023-02-01T07:25:36;4.60;99.90
20845;DHT22;10583;49.084;8.646;2023-02-01T07:28:03;4.60;99.90
20845;DHT22;10583;49.084;8.646;2023-02-01T07:30:29;4.60;99.90
20845;DHT22;10583;49.084;8.646;2023-02-01T07:32:56;4.60;99.90
20845;DHT22;10583;49.084;8.646;2023-02-01T07:35:27;4.60;99.90
20845;DHT22;10583;49.084;8.646;2023-02-01T07:37:54;4.70;99.90
20845;DHT22;10583;49.084;8.646;2023-02-01T07:40:23;4.70;99.90
20845;DHT22;10583;49.084;8.646;2023-02-01T07:42:53;4.70;99.90
20845;DHT22;10583;49.084;8.646;2023-02-01T07:45:20;4.70;99.90
20845;DHT22;10583;49.084;8.646;2023-02-01T07:47:47;4.70;99.90
20845;DHT22;10583;49.084;8.646;2023-02-01T07:50:14;4.70;99.90
20845;DHT22;10583;49.084;8.646;2023-02-01T07:52:42;4.70;99.90
20845;DHT22;10583;49.084;8.646;2023-02-01T07:55:09;4.70;99.90
20845;DHT22;10583;49.084;8.646;2023-02-01T07:57:36;4.80;99.90
20845;DHT22;10583;49.084;8.646;2023-02-01T08:00:03;4.80;99.90
20845;DHT22;10583;49.084;8.646;2023-02-01T08:02:59;4.80;99.90
20845;DHT22;10583;49.084;8.646;2023-02-01T08:05:27;4.80;99.90
20845;DHT22;10583;49.084;8.646;2023-02-01T08:07:55;4.90;99.90
20845;DHT22;10583;49.084;8.646;2023-02-01T08:10:21;4.90;99.90
20845;DHT22;10583;49.084;8.646;2023-02-01T08:12:48;4.90;99.90
20845;DHT22;10583;49.084;8.646;2023-02-01T08:15:17;5.00;99.90
20845;DHT22;10583;49.084;8.646;2023-02-01T08:17:46;5.00;99.90
20845;DHT22;10583;49.084;8.646;2023-02-01T08:20:13;5.10;99.90
20845;DHT22;10583;49.084;8.646;2023-02-01T08:22:40;5.10;99.90
20845;DHT22;10583;49.084;8.646;2023-02-01T08:25:09;5.10;99.90
20845;DHT22;10583;49.084;8.646;2023-02-01T08:27:36;5.10;99.90
20845;DHT22;10583;49.084;8.646;2023-02-01T08:30:04;5.10;99.90
20845;DHT22;10583;49.084;8.646;2023-02-01T08:32:33;5.20;99.90
20845;DHT22;10583;49.084;8.646;2023-02-01T08:35:00;5.20;99.90
20845;DHT22;10583;49.084;8.646;2023-02-01T08:37:27;5.20;99.90
20845;DHT22;10583;49.084;8.646;2023-02-01T08:39:54;5.20;99.90
20845;DHT22;10583;49.084;8.646;2023-02-01T08:42:22;5.20;99.90
20845;DHT22;10583;49.084;8.646;2023-02-01T08:45:06;5.20;99.90
20845;DHT22;10583;49.084;8.646;2023-02-01T08:47:34;5.20;99.90
20845;DHT22;10583;49.084;8.646;2023-02-01T08:50:01;5.20;99.90
20845;DHT22;10583;49.084;8.646;2023-02-01T08:52:28;5.20;99.90
20845;DHT22;10583;49.084;8.646;2023-02-01T08:54:55;5.20;99.90
20845;DHT22;10583;49.084;8.646;2023-02-01T08:57:23;5.20;99.90
20845;DHT22;10583;49.084;8.646;2023-02-01T08:59:49;5.20;99.90
20845;DHT22;10583;49.084;8.646;2023-02-01T09:02:17;5.20;99.90
20845;DHT22;10583;49.084;8.646;2023-02-01T09:04:43;5.20;99.90
20845;DHT22;10583;49.084;8.646;2023-02-01T09:07:10;5.20;99.90
20845;DHT22;10583;49.084;8.646;2023-02-01T09:09:38;5.20;99.90
20845;DHT22;10583;49.084;8.646;2023-02-01T09:12:05;5.20;99.90
20845;DHT22;10583;49.084;8.646;2023-02-01T09:14:34;5.20;99.90
20845;DHT22;10583;49.084;8.646;2023-02-01T09:17:00;5.30;99.90
20845;DHT22;10583;49.084;8.646;2023-02-01T09:19:27;5.60;99.90
20845;DHT22;10583;49.084;8.646;2023-02-01T09:21:54;5.90;99.90
20845;DHT22;10583;49.084;8.646;2023-02-01T09:24:20;6.10;99.90
20845;DHT22;10583;49.084;8.646;2023-02-01T09:26:48;6.20;99.90
20845;DHT22;10583;49.084;8.646;2023-02-01T09:29:14;6.30;99.90
20845;DHT22;10583;49.084;8.646;2023-02-01T09:31:43;6.30;99.90
20845;DHT22;10583;49.084;8.646;2023-02-01T09:34:09;6.40;99.90
20845;DHT22;10583;49.084;8.646;2023-02-01T09:36:36;6.60;99.90
20845;DHT22;10583;49.084;8.646;2023-02-01T09:39:03;6.50;99.90
20845;DHT22;10583;49.084;8.646;2023-02-01T09:41:38;6.60;99.90
20845;DHT22;10583;49.084;8.646;2023-02-01T09:44:16;6.70;99.90
20845;DHT22;10583;49.084;8.646;2023-02-01T09:46:45;6.90;99.90
20845;DHT22;10583;49.084;8.646;2023-02-01T09:49:16;6.90;99.90
20845;DHT22;10583;49.084;8.646;2023-02-01T09:51:47;6.70;99.90
20845;DHT22;10583;49.084;8.646;2023-02-01T09:54:17;6.60;99.90
20845;DHT22;10583;49.084;8.646;2023-02-01T09:56:47;6.90;99.90
20845;DHT22;10583;49.084;8.646;2023-02-01T09:59:23;7.20;99.90
20845;DHT22;10583;49.084;8.646;2023-02-01T10:01:54;7.60;99.90
20845;DHT22;10583;49.084;8.646;2023-02-01T10:04:20;7.60;99.90
20845;DHT22;10583;49.084;8.646;2023-02-01T10:07:02;7.20;99.90
20845;DHT22;10583;49.084;8.646;2023-02-01T10:09:50;6.90;99.90
20845;DHT22;10583;49.084;8.646;2023-02-01T10:12:42;6.70;99.90
20845;DHT22;10583;49.084;8.646;2023-02-01T10:15:24;6.70;99.90
20845;DHT22;10583;49.084;8.646;2023-02-01T10:18:05;7.00;99.90
20845;DHT22;10583;49.084;8.646;2023-02-01T10:20:46;6.80;99.90
20845;DHT22;10583;49.084;8.646;2023-02-01T10:23:30;6.60;99.90
20845;DHT22;10583;49.084;8.646;2023-02-01T10:26:03;6.50;99.90
20845;DHT22;10583;49.084;8.646;2023-02-01T10:28:34;6.50;99.90
20845;DHT22;10583;49.084;8.646;2023-02-01T10:31:03;6.70;99.90
20845;DHT22;10583;49.084;8.646;2023-02-01T10:33:35;7.00;99.90
20845;DHT22;10583;49.084;8.646;2023-02-01T10:36:13;7.50;99.90
20845;DHT22;10583;49.084;8.646;2023-02-01T10:38:40;8.00;99.90
20845;DHT22;10583;49.084;8.646;2023-02-01T10:41:12;7.70;99.90
20845;DHT22;10583;49.084;8.646;2023-02-01T10:43:39;7.40;99.90
20845;DHT22;10583;49.084;8.646;2023-02-01T10:46:07;7.10;99.90
20845;DHT22;10583;49.084;8.646;2023-02-01T10:48:35;6.90;99.90
20845;DHT22;10583;49.084;8.646;2023-02-01T10:51:06;6.70;99.90
20845;DHT22;10583;49.084;8.646;2023-02-01T10:53:38;6.60;99.90
20845;DHT22;10583;49.084;8.646;2023-02-01T10:56:08;6.50;99.90
20845;DHT22;10583;49.084;8.646;2023-02-01T10:58:42;6.40;99.90
20845;DHT22;10583;49.084;8.646;2023-02-01T11:01:16;6.40;99.90
20845;DHT22;10583;49.084;8.646;2023-02-01T11:03:52;6.40;99.90
20845;DHT22;10583;49.084;8.646;2023-02-01T11:06:25;6.50;99.90
20845;DHT22;10583;49.084;8.646;2023-02-01T11:08:54;6.40;99.90
20845;DHT22;10583;49.084;8.646;2023-02-01T11:11:24;6.40;99.90
20845;DHT22;10583;49.084;8.646;2023-02-01T11:13:56;6.30;99.90
20845;DHT22;10583;49.084;8.646;2023-02-01T11:16:30;6.30;99.90
20845;DHT22;10583;49.084;8.646;2023-02-01T11:19:00;6.30;99.90
20845;DHT22;10583;49.084;8.646;2023-02-01T11:21:27;6.30;99.90
20845;DHT22;10583;49.084;8.646;2023-02-01T11:23:54;6.30;99.90
20845;DHT22;10583;49.084;8.646;2023-02-01T11:26:22;6.20;99.90
20845;DHT22;10583;49.084;8.646;2023-02-01T11:28:56;6.30;99.90
20845;DHT22;10583;49.084;8.646;2023-02-01T11:31:25;6.30;99.90
20845;DHT22;10583;49.084;8.646;2023-02-01T11:33:55;6.40;99.90
20845;DHT22;10583;49.084;8.646;2023-02-01T11:36:27;6.40;99.90
20845;DHT22;10583;49.084;8.646;2023-02-01T11:39:09;6.40;99.90
20845;DHT22;10583;49.084;8.646;2023-02-01T11:41:41;6.40;99.90
20845;DHT22;10583;49.084;8.646;2023-02-01T11:44:20;6.40;99.90
20845;DHT22;10583;49.084;8.646;2023-02-01T11:46:47;6.50;99.90
20845;DHT22;10583;49.084;8.646;2023-02-01T11:49:20;6.40;99.90
20845;DHT22;10583;49.084;8.646;2023-02-01T11:51:57;6.50;99.90
20845;DHT22;10583;49.084;8.646;2023-02-01T11:54:40;6.40;99.90
20845;DHT22;10583;49.084;8.646;2023-02-01T11:57:29;6.50;99.90
20845;DHT22;10583;49.084;8.646;2023-02-01T12:00:24;6.60;99.90
20845;DHT22;10583;49.084;8.646;2023-02-01T12:03:13;6.40;99.90
20845;DHT22;10583;49.084;8.646;2023-02-01T12:05:52;6.50;99.90
20845;DHT22;10583;49.084;8.646;2023-02-01T12:08:37;6.60;99.90
20845;DHT22;10583;49.084;8.646;2023-02-01T12:11:27;6.60;99.90
20845;DHT22;10583;49.084;8.646;2023-02-01T12:14:05;6.50;99.90
20845;DHT22;10583;49.084;8.646;2023-02-01T12:16:40;6.50;99.90
20845;DHT22;10583;49.084;8.646;2023-02-01T12:19:27;6.40;99.90
20845;DHT22;10583;49.084;8.646;2023-02-01T12:22:13;6.40;99.90
20845;DHT22;10583;49.084;8.646;2023-02-01T12:24:57;6.40;99.90
20845;DHT22;10583;49.084;8.646;2023-02-01T12:27:58;6.40;99.90
20845;DHT22;10583;49.084;8.646;2023-02-01T12:30:42;6.40;99.90
20845;DHT22;10583;49.084;8.646;2023-02-01T12:33:18;6.50;99.90
20845;DHT22;10583;49.084;8.646;2023-02-01T12:36:10;6.60;99.90
20845;DHT22;10583;49.084;8.646;2023-02-01T12:38:48;6.60;99.90
20845;DHT22;10583;49.084;8.646;2023-02-01T12:41:34;6.60;99.90
20845;DHT22;10583;49.084;8.646;2023-02-01T12:44:08;6.60;99.90
20845;DHT22;10583;49.084;8.646;2023-02-01T12:46:41;6.60;99.90
20845;DHT22;10583;49.084;8.646;2023-02-01T12:49:14;6.70;99.90
20845;DHT22;10583;49.084;8.646;2023-02-01T12:51:44;6.60;99.90
20845;DHT22;10583;49.084;8.646;2023-02-01T12:54:18;6.60;99.90
20845;DHT22;10583;49.084;8.646;2023-02-01T12:56:49;6.60;99.90
20845;DHT22;10583;49.084;8.646;2023-02-01T12:59:24;6.60;99.90
20845;DHT22;10583;49.084;8.646;2023-02-01T13:01:55;6.50;99.90
20845;DHT22;10583;49.084;8.646;2023-02-01T13:04:28;6.60;99.90
20845;DHT22;10583;49.084;8.646;2023-02-01T13:07:03;6.60;99.90
20845;DHT22;10583;49.084;8.646;2023-02-01T13:09:38;6.70;99.90
20845;DHT22;10583;49.084;8.646;2023-02-01T13:12:12;6.60;99.90
20845;DHT22;10583;49.084;8.646;2023-02-01T13:14:42;6.60;99.90
20845;DHT22;10583;49.084;8.646;2023-02-01T13:17:15;6.60;99.90
20845;DHT22;10583;49.084;8.646;2023-02-01T13:19:45;6.50;99.90
20845;DHT22;10583;49.084;8.646;2023-02-01T13:22:17;6.50;99.90
20845;DHT22;10583;49.084;8.646;2023-02-01T13:24:47;6.50;99.90
20845;DHT22;10583;49.084;8.646;2023-02-01T13:27:16;6.50;99.90
20845;DHT22;10583;49.084;8.646;2023-02-01T13:29:49;6.50;99.90
20845;DHT22;10583;49.084;8.646;2023-02-01T13:32:36;6.50;99.90
20845;DHT22;10583;49.084;8.646;2023-02-01T13:35:29;6.50;99.90
20845;DHT22;10583;49.084;8.646;2023-02-01T13:38:11;6.60;99.90
20845;DHT22;10583;49.084;8.646;2023-02-01T13:40:47;6.60;99.90
20845;DHT22;10583;49.084;8.646;2023-02-01T13:43:23;6.60;99.90
20845;DHT22;10583;49.084;8.646;2023-02-01T13:45:54;6.70;99.90
20845;DHT22;10583;49.084;8.646;2023-02-01T13:48:28;6.70;99.90
20845;DHT22;10583;49.084;8.646;2023-02-01T13:50:57;6.70;99.90
20845;DHT22;10583;49.084;8.646;2023-02-01T13:53:29;6.70;99.90
20845;DHT22;10583;49.084;8.646;2023-02-01T13:55:59;6.70;99.90
20845;DHT22;10583;49.084;8.646;2023-02-01T13:58:33;6.60;99.90
20845;DHT22;10583;49.084;8.646;2023-02-01T14:07:21;6.50;99.90
20845;DHT22;10583;49.084;8.646;2023-02-01T14:09:48;6.50;99.90
20845;DHT22;10583;49.084;8.646;2023-02-01T14:12:43;6.50;99.90
20845;DHT22;10583;49.084;8.646;2023-02-01T14:15:23;6.50;99.90
20845;DHT22;10583;49.084;8.646;2023-02-01T14:17:50;6.50;99.90
20845;DHT22;10583;49.084;8.646;2023-02-01T14:20:45;6.50;99.90
20845;DHT22;10583;49.084;8.646;2023-02-01T14:23:22;6.50;99.90
20845;DHT22;10583;49.084;8.646;2023-02-01T14:29:03;6.50;99.90
20845;DHT22;10583;49.084;8.646;2023-02-01T14:31:44;6.50;99.90
20845;DHT22;10583;49.084;8.646;2023-02-01T14:34:18;6.50;99.90
20845;DHT22;10583;49.084;8.646;2023-02-01T14:36:51;6.40;99.90
20845;DHT22;10583;49.084;8.646;2023-02-01T14:39:22;6.40;99.90
20845;DHT22;10583;49.084;8.646;2023-02-01T14:41:54;6.40;99.90
20845;DHT22;10583;49.084;8.646;2023-02-01T14:44:25;6.50;99.90
20845;DHT22;10583;49.084;8.646;2023-02-01T14:47:27;6.50;99.90
20845;DHT22;10583;49.084;8.646;2023-02-01T14:49:58;6.40;99.90
20845;DHT22;10583;49.084;8.646;2023-02-01T14:52:31;6.40;99.90
20845;DHT22;10583;49.084;8.646;2023-02-01T14:55:03;6.40;99.90
20845;DHT22;10583;49.084;8.646;2023-02-01T14:57:34;6.40;99.90
20845;DHT22;10583;49.084;8.646;2023-02-01T15:00:10;6.50;99.90
20845;DHT22;10583;49.084;8.646;2023-02-01T15:02:43;6.50;99.90
20845;DHT22;10583;49.084;8.646;2023-02-01T15:05:31;6.50;99.90
20845;DHT22;10583;49.084;8.646;2023-02-01T15:08:03;6.60;99.90
20845;DHT22;10583;49.084;8.646;2023-02-01T15:10:33;6.60;99.90
20845;DHT22;10583;49.084;8.646;2023-02-01T15:13:08;6.60;99.90
20845;DHT22;10583;49.084;8.646;2023-02-01T15:15:39;6.60;99.90
20845;DHT22;10583;49.084;8.646;2023-02-01T15:18:16;6.50;99.90
20845;DHT22;10583;49.084;8.646;2023-02-01T15:20:56;6.50;99.90
20845;DHT22;10583;49.084;8.646;2023-02-01T15:23:23;6.50;99.90
20845;DHT22;10583;49.084;8.646;2023-02-01T15:25:50;6.50;99.90
20845;DHT22;10583;49.084;8.646;2023-02-01T15:28:17;6.50;99.90
20845;DHT22;10583;49.084;8.646;2023-02-01T15:30:52;6.60;99.90
20845;DHT22;10583;49.084;8.646;2023-02-01T15:33:21;6.50;99.90
20845;DHT22;10583;49.084;8.646;2023-02-01T15:35:50;6.50;99.90
20845;DHT22;10583;49.084;8.646;2023-02-01T15:38:25;6.50;99.90
20845;DHT22;10583;49.084;8.646;2023-02-01T15:40:57;6.50;99.90
20845;DHT22;10583;49.084;8.646;2023-02-01T15:43:26;6.50;99.90
20845;DHT22;10583;49.084;8.646;2023-02-01T15:45:56;6.50;99.90
20845;DHT22;10583;49.084;8.646;2023-02-01T15:48:26;6.50;99.90
20845;DHT22;10583;49.084;8.646;2023-02-01T15:50:54;6.50;99.90
20845;DHT22;10583;49.084;8.646;2023-02-01T15:53:24;6.50;99.90
20845;DHT22;10583;49.084;8.646;2023-02-01T15:55:57;6.50;99.90
20845;DHT22;10583;49.084;8.646;2023-02-01T15:58:26;6.50;99.90
20845;DHT22;10583;49.084;8.646;2023-02-01T16:00:55;6.50;99.90
20845;DHT22;10583;49.084;8.646;2023-02-01T16:03:37;6.50;99.90
20845;DHT22;10583;49.084;8.646;2023-02-01T16:06:06;6.50;99.90
20845;DHT22;10583;49.084;8.646;2023-02-01T16:08:33;6.50;99.90
20845;DHT22;10583;49.084;8.646;2023-02-01T16:11:20;6.50;99.90
20845;DHT22;10583;49.084;8.646;2023-02-01T16:13:49;6.50;99.90
20845;DHT22;10583;49.084;8.646;2023-02-01T16:16:16;6.50;99.90
20845;DHT22;10583;49.084;8.646;2023-02-01T16:18:44;6.50;99.90
20845;DHT22;10583;49.084;8.646;2023-02-01T16:21:11;6.50;99.90
20845;DHT22;10583;49.084;8.646;2023-02-01T16:23:38;6.50;99.90
20845;DHT22;10583;49.084;8.646;2023-02-01T16:26:06;6.50;99.90
20845;DHT22;10583;49.084;8.646;2023-02-01T16:28:33;6.50;99.90